Time;durP1;ratioP1;P1;durP2;ratioP2;P2;SDS_P1;SDS_P2;PMS_P1;PMS_P2;Temp;Humidity;BMP_temperature;BMP_pressure;BME280_temperature;BME280_humidity;BME280_pressure;Samples;Min_cycle;Max_cycle;Signal;HPM_P1;HPM_P2
2022/05/10 00:02:24;;;;;;;8.63;6.60;;;14.20;99.90;;;;;;5073925;28;20207;-56
2022/05/10 00:04:52;;;;;;;7.03;6.43;;;14.30;99.90;;;;;;5073653;28;20208;-56
2022/05/10 00:07:21;;;;;;;8.70;6.70;;;14.30;99.90;;;;;;5073725;28;20209;-56
2022/05/10 00:09:48;;;;;;;7.77;6.93;;;14.30;99.90;;;;;;5073640;28;20232;-56
2022/05/10 00:12:15;;;;;;;8.70;7.17;;;14.40;99.90;;;;;;5073486;28;20228;-56
2022/05/10 00:14:42;;;;;;;7.33;6.70;;;14.40;99.90;;;;;;5073310;28;20668;-56
2022/05/10 00:17:26;;;;;;;7.10;6.50;;;14.50;99.90;;;;;;5073366;28;20576;-56
2022/05/10 00:19:54;;;;;;;8.60;7.03;;;14.50;99.90;;;;;;5073669;28;20262;-56
2022/05/10 00:22:21;;;;;;;7.27;6.60;;;14.50;99.90;;;;;;5073456;28;20630;-56
2022/05/10 00:24:48;;;;;;;6.73;6.13;;;14.50;99.90;;;;;;5073063;28;20684;-56
2022/05/10 00:27:14;;;;;;;7.43;6.77;;;14.60;99.90;;;;;;5073184;28;20673;-56
2022/05/10 00:29:41;;;;;;;9.20;7.07;;;14.60;99.90;;;;;;5073626;28;20209;-56
2022/05/10 00:32:09;;;;;;;7.20;6.60;;;14.60;99.90;;;;;;5073228;28;20232;-56
2022/05/10 00:34:35;;;;;;;7.07;6.37;;;14.60;99.90;;;;;;5073260;28;20201;-56
2022/05/10 00:37:04;;;;;;;7.63;6.93;;;14.60;99.90;;;;;;5073162;28;20252;-56
2022/05/10 00:39:31;;;;;;;8.57;7.07;;;14.60;99.90;;;;;;5073406;28;20676;-56
2022/05/10 00:42:03;;;;;;;7.87;7.10;;;14.60;99.90;;;;;;5073389;28;20722;-56
2022/05/10 00:44:36;;;;;;;7.93;6.77;;;14.60;99.90;;;;;;5073006;28;20620;-56
2022/05/10 00:47:11;;;;;;;8.03;7.07;;;14.50;99.90;;;;;;5072848;28;20229;-56
2022/05/10 00:49:44;;;;;;;8.87;6.93;;;14.50;99.90;;;;;;5072985;28;20240;-56
2022/05/10 00:52:19;;;;;;;8.00;7.20;;;14.50;99.90;;;;;;5072548;28;20233;-56
2022/05/10 00:54:51;;;;;;;8.00;7.20;;;14.40;99.90;;;;;;5072644;28;20205;-56
2022/05/10 00:57:27;;;;;;;7.70;7.00;;;14.40;99.90;;;;;;5072516;28;20208;-56
2022/05/10 01:00:01;;;;;;;7.77;6.97;;;14.30;99.90;;;;;;5072566;28;20692;-56
2022/05/10 01:02:40;;;;;;;7.37;6.67;;;14.30;99.90;;;;;;5072557;28;20213;-56
2022/05/10 01:05:15;;;;;;;7.17;6.50;;;14.30;99.90;;;;;;5072235;28;20204;-56
2022/05/10 01:07:52;;;;;;;6.93;6.33;;;14.20;99.90;;;;;;5072550;28;20291;-56
2022/05/10 01:10:28;;;;;;;8.50;6.60;;;14.10;99.90;;;;;;5072509;28;20209;-56
2022/05/10 01:13:03;;;;;;;8.90;7.27;;;14.10;99.90;;;;;;5072292;28;20226;-56
2022/05/10 01:15:32;;;;;;;7.73;6.87;;;14.00;99.90;;;;;;5071995;28;20715;-56
2022/05/10 01:17:59;;;;;;;7.43;6.73;;;14.00;99.90;;;;;;5072269;28;20673;-56
2022/05/10 01:20:30;;;;;;;7.77;7.07;;;13.90;99.90;;;;;;5072490;28;20201;-56
2022/05/10 01:23:07;;;;;;;10.27;7.10;;;13.80;99.90;;;;;;5072358;28;20205;-56
2022/05/10 01:25:49;;;;;;;7.50;6.90;;;13.80;99.90;;;;;;5072161;28;20225;-56
2022/05/10 01:28:23;;;;;;;7.43;6.73;;;13.80;99.90;;;;;;5072426;28;20205;-56
2022/05/10 01:30:50;;;;;;;7.73;7.03;;;13.70;99.90;;;;;;5072267;28;20545;-56
2022/05/10 01:33:32;;;;;;;7.70;7.00;;;13.70;99.90;;;;;;5072050;28;20286;-56
2022/05/10 01:36:15;;;;;;;8.13;7.40;;;13.60;99.90;;;;;;5071912;28;20559;-56
2022/05/10 01:38:49;;;;;;;8.20;7.13;;;13.50;99.90;;;;;;5072153;28;20208;-56
2022/05/10 01:41:22;;;;;;;7.77;7.13;;;13.50;99.90;;;;;;5072124;28;20262;-55
2022/05/10 01:43:56;;;;;;;7.83;7.03;;;13.50;99.90;;;;;;5071980;28;20250;-55
2022/05/10 01:46:26;;;;;;;7.67;6.63;;;13.40;99.90;;;;;;5072211;28;20231;-55
2022/05/10 01:48:58;;;;;;;8.20;7.43;;;13.30;99.90;;;;;;5073108;28;20263;-55
2022/05/10 01:51:31;;;;;;;7.83;7.17;;;13.30;99.90;;;;;;5072598;28;20205;-55
2022/05/10 01:53:58;;;;;;;7.57;6.97;;;13.30;99.90;;;;;;5072074;28;20212;-55
2022/05/10 01:56:27;;;;;;;8.60;7.73;;;13.20;99.90;;;;;;5072263;28;20228;-55
2022/05/10 01:58:56;;;;;;;8.90;7.97;;;13.30;99.90;;;;;;5072009;28;20205;-55
2022/05/10 02:01:27;;;;;;;8.90;8.00;;;13.20;99.90;;;;;;5072105;28;20258;-55
2022/05/10 02:04:00;;;;;;;8.53;7.63;;;13.20;99.90;;;;;;5071895;28;20231;-56
2022/05/10 02:06:32;;;;;;;8.43;7.47;;;13.20;99.90;;;;;;5082143;22;20232;-62
2022/05/10 02:09:07;;;;;;;8.27;7.47;;;13.10;99.90;;;;;;5040716;28;20681;-62
2022/05/10 02:11:38;;;;;;;8.63;7.83;;;13.10;99.90;;;;;;5036265;28;20271;-62
2022/05/10 02:14:14;;;;;;;8.37;7.53;;;13.10;99.90;;;;;;5035610;28;20206;-62
2022/05/10 02:16:44;;;;;;;9.60;8.70;;;13.10;99.90;;;;;;5035941;28;20237;-62
2022/05/10 02:19:17;;;;;;;8.40;7.60;;;13.10;99.90;;;;;;5035922;28;20210;-62
2022/05/10 02:21:49;;;;;;;9.23;7.90;;;13.10;99.90;;;;;;5035664;28;20523;-62
2022/05/10 02:24:19;;;;;;;9.63;7.87;;;13.10;99.90;;;;;;5035787;28;20275;-62
2022/05/10 02:26:50;;;;;;;9.03;7.87;;;13.10;99.90;;;;;;5035749;28;20493;-62
2022/05/10 02:29:24;;;;;;;9.57;8.40;;;13.10;99.90;;;;;;5035845;28;20209;-61
2022/05/10 02:34:45;;;;;;;8.07;7.37;;;13.00;99.90;;;;;;5035340;28;20210;-61
2022/05/10 02:37:12;;;;;;;8.77;7.87;;;13.10;99.90;;;;;;5035565;28;20743;-61
2022/05/10 02:39:39;;;;;;;9.57;7.90;;;13.10;99.90;;;;;;5035489;28;20206;-62
2022/05/10 02:42:09;;;;;;;9.47;8.47;;;13.10;99.90;;;;;;5035296;28;20213;-62
2022/05/10 02:44:37;;;;;;;11.43;8.43;;;13.20;99.90;;;;;;5035134;28;20237;-62
2022/05/10 02:47:05;;;;;;;10.50;8.80;;;13.20;99.90;;;;;;5035356;28;20226;-62
2022/05/10 02:49:32;;;;;;;9.23;8.10;;;13.20;99.90;;;;;;5035392;28;20594;-62
2022/05/10 02:51:59;;;;;;;9.40;8.50;;;13.20;99.90;;;;;;5035119;28;20241;-62
2022/05/10 02:54:26;;;;;;;9.10;8.20;;;13.20;99.90;;;;;;5034935;28;20210;-60
2022/05/10 02:56:53;;;;;;;9.60;8.67;;;13.20;99.90;;;;;;5034923;28;20236;-62
2022/05/10 02:59:23;;;;;;;12.37;8.83;;;13.20;99.90;;;;;;5035030;28;20655;-62
2022/05/10 03:01:58;;;;;;;11.37;8.63;;;13.10;99.90;;;;;;5035111;28;20210;-62
2022/05/10 03:04:32;;;;;;;10.37;8.30;;;13.10;99.90;;;;;;5034832;28;20206;-62
2022/05/10 03:06:59;;;;;;;9.60;8.70;;;13.00;99.90;;;;;;5034673;28;20770;-62
2022/05/10 03:09:26;;;;;;;9.20;8.37;;;13.00;99.90;;;;;;5034740;28;20284;-62
2022/05/10 03:11:53;;;;;;;8.50;7.77;;;13.10;99.90;;;;;;5034791;28;20210;-62
2022/05/10 03:14:20;;;;;;;9.20;8.13;;;13.00;99.90;;;;;;5034598;28;20230;-62
2022/05/10 03:16:46;;;;;;;9.20;8.30;;;12.90;99.90;;;;;;5034819;28;20313;-62
2022/05/10 03:19:16;;;;;;;8.80;8.10;;;12.90;99.90;;;;;;5034636;28;20221;-62
2022/05/10 03:21:43;;;;;;;9.40;8.50;;;12.80;99.90;;;;;;5034470;28;20570;-62
2022/05/10 03:24:10;;;;;;;10.67;8.83;;;12.80;99.90;;;;;;5034177;28;20198;-61
2022/05/10 03:26:37;;;;;;;8.90;8.10;;;12.70;99.90;;;;;;5034583;28;20230;-62
2022/05/10 03:29:06;;;;;;;9.20;8.27;;;12.60;99.90;;;;;;5034568;28;20202;-61
2022/05/10 03:31:33;;;;;;;12.83;8.43;;;12.60;99.90;;;;;;5034469;28;20206;-61
2022/05/10 03:36:47;;;;;;;9.57;8.57;;;12.60;99.90;;;;;;5008591;28;20225;-62
2022/05/10 03:39:14;;;;;;;9.73;8.80;;;12.60;99.90;;;;;;5034227;28;20574;-62
2022/05/10 03:41:41;;;;;;;9.80;8.83;;;12.60;99.90;;;;;;5034328;28;20210;-61
2022/05/10 03:44:08;;;;;;;9.50;8.60;;;12.60;99.90;;;;;;5033862;28;20697;-62
2022/05/10 03:46:35;;;;;;;10.57;9.57;;;12.60;99.90;;;;;;5034224;28;20226;-62
2022/05/10 03:49:02;;;;;;;10.93;9.43;;;12.60;99.90;;;;;;5033994;28;20210;-62
2022/05/10 03:51:29;;;;;;;12.43;8.80;;;12.70;99.90;;;;;;5034338;28;20253;-61
2022/05/10 03:53:58;;;;;;;10.13;9.13;;;12.70;99.90;;;;;;5033905;28;20233;-62
2022/05/10 03:56:25;;;;;;;9.47;8.47;;;12.60;99.90;;;;;;5034029;28;20321;-62
2022/05/10 03:58:52;;;;;;;9.63;8.73;;;12.60;99.90;;;;;;5034172;28;20210;-62
2022/05/10 04:01:19;;;;;;;10.70;9.57;;;12.60;99.90;;;;;;5033934;28;20268;-62
2022/05/10 04:03:47;;;;;;;9.67;8.70;;;12.60;99.90;;;;;;5033576;28;20633;-62
2022/05/10 04:06:14;;;;;;;9.57;8.67;;;12.70;99.90;;;;;;5033673;28;20276;-62
2022/05/10 04:08:40;;;;;;;10.70;8.93;;;12.70;99.90;;;;;;5034012;28;20264;-62
2022/05/10 04:11:11;;;;;;;12.33;8.47;;;12.70;99.90;;;;;;5033672;28;20210;-62
2022/05/10 04:13:38;;;;;;;9.40;8.50;;;12.80;99.90;;;;;;5033505;28;20230;-62
2022/05/10 04:16:06;;;;;;;11.03;9.80;;;12.80;99.90;;;;;;5033359;28;20227;-61
2022/05/10 04:18:32;;;;;;;10.93;8.80;;;12.90;99.90;;;;;;5033466;28;20692;-62
2022/05/10 04:20:59;;;;;;;9.37;8.57;;;12.90;99.90;;;;;;5033774;28;20268;-62
2022/05/10 04:23:27;;;;;;;9.60;8.60;;;13.00;99.90;;;;;;5033582;28;20202;-61
2022/05/10 04:25:54;;;;;;;10.90;8.93;;;13.00;99.90;;;;;;5033080;28;20237;-61
2022/05/10 04:28:22;;;;;;;10.97;9.30;;;13.10;99.90;;;;;;5033484;28;20214;-62
2022/05/10 04:30:49;;;;;;;9.83;8.87;;;13.20;99.90;;;;;;5033149;28;20674;-62
2022/05/10 04:33:16;;;;;;;10.53;9.10;;;13.30;99.90;;;;;;5032695;28;20237;-62
2022/05/10 04:35:42;;;;;;;9.27;8.20;;;13.30;99.90;;;;;;5032789;28;20257;-62
2022/05/10 04:38:09;;;;;;;9.27;8.37;;;13.30;99.90;;;;;;5032991;28;20206;-62
2022/05/10 04:43:20;;;;;;;12.67;9.63;;;13.40;99.90;;;;;;5033061;28;20272;-61
2022/05/10 04:45:48;;;;;;;10.43;8.90;;;13.50;99.90;;;;;;5032997;28;20279;-62
2022/05/10 04:48:15;;;;;;;9.20;8.27;;;13.70;99.90;;;;;;5033064;28;20240;-62
2022/05/10 04:50:41;;;;;;;10.20;8.40;;;13.70;99.90;;;;;;5032952;28;20264;-62
2022/05/10 04:53:09;;;;;;;13.43;9.37;;;13.90;99.90;;;;;;5032601;28;20762;-61
2022/05/10 04:55:36;;;;;;;9.60;8.67;;;14.00;99.90;;;;;;5032425;28;20222;-61
2022/05/10 04:58:03;;;;;;;13.50;8.83;;;14.10;99.90;;;;;;5032668;28;20788;-61
2022/05/10 05:00:30;;;;;;;9.27;8.37;;;14.30;99.90;;;;;;5032736;28;20209;-62
2022/05/10 05:02:58;;;;;;;9.60;8.70;;;14.50;99.90;;;;;;5032942;28;20653;-62
2022/05/10 05:05:25;;;;;;;9.63;8.63;;;14.80;99.90;;;;;;5032733;28;20608;-62
2022/05/10 05:07:52;;;;;;;9.00;8.17;;;14.90;99.90;;;;;;5032635;28;20264;-61
2022/05/10 05:10:19;;;;;;;9.60;8.53;;;15.10;99.90;;;;;;5032438;28;20689;-62
2022/05/10 05:12:45;;;;;;;9.03;8.10;;;15.30;99.90;;;;;;5032488;28;20217;-63
2022/05/10 05:15:13;;;;;;;10.23;8.33;;;15.50;99.90;;;;;;5032164;28;20206;-62
2022/05/10 05:17:40;;;;;;;9.23;8.23;;;15.70;99.90;;;;;;5032372;28;20212;-64
2022/05/10 05:20:10;;;;;;;9.17;8.27;;;16.00;99.90;;;;;;5032361;28;20213;-63
2022/05/10 05:22:37;;;;;;;8.83;7.93;;;16.20;99.90;;;;;;5031876;28;20217;-62
2022/05/10 05:25:05;;;;;;;10.70;7.57;;;16.40;99.90;;;;;;5031949;28;20273;-61
2022/05/10 05:27:32;;;;;;;8.80;7.93;;;16.70;99.90;;;;;;5032384;28;20233;-61
2022/05/10 05:29:58;;;;;;;11.70;7.93;;;17.00;99.90;;;;;;5032323;28;20209;-61
2022/05/10 05:32:29;;;;;;;9.20;7.60;;;17.40;99.90;;;;;;5032269;28;20202;-61
2022/05/10 05:34:56;;;;;;;8.68;7.72;;;17.80;99.90;;;;;;5031977;28;20230;-63
2022/05/10 05:37:33;;;;;;;8.10;7.10;;;18.10;99.90;;;;;;5031752;28;20276;-63
2022/05/10 05:40:01;;;;;;;8.35;6.63;;;19.10;99.90;;;;;;5032195;28;20206;-63
2022/05/10 05:42:27;;;;;;;8.80;6.15;;;20.70;99.90;;;;;;5031917;28;20263;-61
2022/05/10 05:44:54;;;;;;;8.50;6.85;;;22.50;99.90;;;;;;5030964;28;20213;-61
2022/05/10 05:47:21;;;;;;;6.78;5.68;;;24.10;99.90;;;;;;5032098;28;20229;-62
2022/05/10 05:49:48;;;;;;;6.20;5.60;;;25.60;99.90;;;;;;5031822;28;20209;-61
2022/05/10 05:52:17;;;;;;;5.88;5.28;;;26.90;98.00;;;;;;5031672;28;20217;-61
2022/05/10 05:54:45;;;;;;;5.97;5.38;;;28.10;94.60;;;;;;5031571;28;20695;-61
2022/05/10 05:57:12;;;;;;;5.47;4.95;;;29.10;91.20;;;;;;5031761;28;20242;-61
2022/05/10 05:59:39;;;;;;;6.55;5.30;;;29.50;87.60;;;;;;5031473;28;20545;-61
2022/05/10 06:02:11;;;;;;;7.13;6.45;;;29.50;84.40;;;;;;5031826;28;20210;-61
2022/05/10 06:04:38;;;;;;;7.28;5.50;;;29.80;83.00;;;;;;5031359;28;20202;-61
2022/05/10 06:07:05;;;;;;;5.68;5.07;;;30.30;80.80;;;;;;5031481;28;20237;-61
2022/05/10 06:09:31;;;;;;;8.27;5.18;;;30.90;76.60;;;;;;5031831;28;20206;-61
2022/05/10 06:12:00;;;;;;;5.55;5.00;;;31.20;74.80;;;;;;5031715;28;20511;-60
2022/05/10 06:14:26;;;;;;;5.40;4.90;;;31.50;72.50;;;;;;5031198;28;20225;-61
2022/05/10 06:16:55;;;;;;;6.45;5.20;;;31.90;70.60;;;;;;5031325;28;20233;-61
2022/05/10 06:19:23;;;;;;;4.82;4.43;;;32.20;69.00;;;;;;5031184;28;20268;-61
2022/05/10 06:21:50;;;;;;;5.20;4.70;;;32.30;67.10;;;;;;5031570;28;20325;-61
2022/05/10 06:24:17;;;;;;;5.20;4.70;;;32.10;66.20;;;;;;5031290;28;20585;-62
2022/05/10 06:26:44;;;;;;;4.95;4.50;;;31.80;66.80;;;;;;5032293;28;20230;-62
2022/05/10 06:29:12;;;;;;;5.72;5.03;;;31.70;66.80;;;;;;5032455;28;20623;-61
2022/05/10 06:31:41;;;;;;;6.32;5.68;;;31.80;66.20;;;;;;5031519;28;20202;-62
2022/05/10 06:34:09;;;;;;;5.65;5.10;;;31.80;65.90;;;;;;5031412;28;20238;-62
2022/05/10 06:36:36;;;;;;;5.53;5.00;;;31.60;65.80;;;;;;5031470;28;20226;-62
2022/05/10 06:39:02;;;;;;;6.85;5.22;;;31.40;65.50;;;;;;5031356;28;20209;-61
2022/05/10 06:41:31;;;;;;;7.05;4.80;;;31.30;66.10;;;;;;5031250;28;20210;-61
2022/05/10 06:43:58;;;;;;;4.82;4.32;;;31.50;65.90;;;;;;5031081;28;20214;-61
2022/05/10 06:46:27;;;;;;;4.63;4.22;;;31.80;64.00;;;;;;5031318;28;20288;-61
2022/05/10 06:48:54;;;;;;;5.90;4.68;;;32.00;63.70;;;;;;5031515;28;20705;-62
2022/05/10 06:51:23;;;;;;;5.90;4.88;;;32.40;62.20;;;;;;5031649;28;20264;-61
2022/05/10 06:53:50;;;;;;;6.30;4.57;;;32.90;61.20;;;;;;5031304;28;20272;-61
2022/05/10 06:56:18;;;;;;;5.78;4.75;;;33.50;59.30;;;;;;5033808;28;20300;-62
2022/05/10 06:58:45;;;;;;;8.95;4.95;;;34.00;58.80;;;;;;5034994;28;20594;-62
2022/05/10 07:01:12;;;;;;;6.43;4.63;;;34.20;57.90;;;;;;5035192;28;20260;-62
2022/05/10 07:03:42;;;;;;;4.95;4.55;;;33.70;58.50;;;;;;5035262;28;20229;-61
2022/05/10 07:06:12;;;;;;;6.03;4.30;;;33.70;58.40;;;;;;5034570;28;20506;-62
2022/05/10 07:08:39;;;;;;;5.68;4.47;;;34.20;57.40;;;;;;5035099;28;20209;-62
2022/05/10 07:11:06;;;;;;;6.03;4.50;;;34.80;56.50;;;;;;5035405;28;20646;-61
2022/05/10 07:13:34;;;;;;;5.20;4.70;;;35.40;55.90;;;;;;5035413;28;20309;-62
2022/05/10 07:16:02;;;;;;;6.15;4.68;;;35.70;54.80;;;;;;5035105;28;20226;-62
2022/05/10 07:18:29;;;;;;;7.80;4.70;;;35.80;54.70;;;;;;5035373;28;20301;-61
2022/05/10 07:20:57;;;;;;;5.10;4.60;;;36.20;53.80;;;;;;5034400;28;20674;-61
2022/05/10 07:23:27;;;;;;;7.78;4.63;;;36.60;52.80;;;;;;5034658;28;20217;-61
2022/05/10 07:25:55;;;;;;;8.32;6.60;;;36.60;52.60;;;;;;5034125;28;20606;-61
2022/05/10 07:28:22;;;;;;;5.75;4.57;;;36.90;52.20;;;;;;5034574;28;20203;-61
2022/05/10 07:30:49;;;;;;;4.93;4.43;;;37.20;51.50;;;;;;5034598;28;20591;-61
2022/05/10 07:33:19;;;;;;;7.38;4.63;;;37.50;51.10;;;;;;5034578;28;20217;-61
2022/05/10 07:38:31;;;;;;;10.10;5.00;;;37.70;50.30;;;;;;5034341;28;20210;-61
2022/05/10 07:40:58;;;;;;;7.25;4.93;;;37.80;49.50;;;;;;5034356;28;20210;-61
2022/05/10 07:43:25;;;;;;;6.05;4.53;;;38.00;48.60;;;;;;5034395;28;20206;-61
2022/05/10 07:45:54;;;;;;;6.50;4.60;;;38.70;47.60;;;;;;5033656;28;20596;-61
2022/05/10 07:48:21;;;;;;;5.18;4.45;;;39.20;46.80;;;;;;5034047;28;20214;-60
2022/05/10 07:50:50;;;;;;;5.45;4.10;;;39.80;45.50;;;;;;5034016;28;20206;-61
2022/05/10 07:53:17;;;;;;;5.25;4.38;;;40.10;45.00;;;;;;5034392;28;20369;-61
2022/05/10 07:55:45;;;;;;;5.57;4.45;;;40.40;44.80;;;;;;5033754;28;20728;-61
2022/05/10 07:58:12;;;;;;;5.03;4.20;;;40.80;44.70;;;;;;5034127;28;20289;-62
2022/05/10 08:00:41;;;;;;;6.70;4.22;;;41.20;43.60;;;;;;5034119;28;20202;-61
2022/05/10 08:03:10;;;;;;;5.97;4.10;;;41.10;44.20;;;;;;5033713;28;20209;-61
2022/05/10 08:05:37;;;;;;;4.70;3.83;;;40.80;43.50;;;;;;5033886;28;20241;-60
2022/05/10 08:08:04;;;;;;;5.75;3.83;;;40.90;43.80;;;;;;5033170;28;20213;-60
2022/05/10 08:10:31;;;;;;;4.45;3.90;;;41.00;42.80;;;;;;5033879;28;20209;-61
2022/05/10 08:12:59;;;;;;;5.65;3.83;;;41.00;42.80;;;;;;5033574;28;20210;-60
2022/05/10 08:15:26;;;;;;;5.47;3.70;;;41.00;42.80;;;;;;5033304;28;20229;-60
2022/05/10 08:17:53;;;;;;;4.82;3.80;;;40.90;42.50;;;;;;5033504;28;20271;-60
2022/05/10 08:20:20;;;;;;;4.47;3.20;;;41.00;42.10;;;;;;5033722;28;20229;-60
2022/05/10 08:22:46;;;;;;;4.95;3.67;;;40.90;41.90;;;;;;5033516;28;20210;-59
2022/05/10 08:25:14;;;;;;;5.10;3.45;;;41.00;41.60;;;;;;5033030;28;20210;-59
2022/05/10 08:27:41;;;;;;;5.95;3.83;;;40.90;42.30;;;;;;5033677;28;20720;-59
2022/05/10 08:30:10;;;;;;;4.85;4.35;;;41.00;42.00;;;;;;5033239;28;20210;-56
2022/05/10 08:32:38;;;;;;;9.45;8.50;;;40.70;42.20;;;;;;5033051;28;20202;-56
2022/05/10 08:35:06;;;;;;;5.75;5.25;;;39.80;42.80;;;;;;5033022;28;20310;-57
2022/05/10 08:37:32;;;;;;;6.95;4.95;;;38.30;43.70;;;;;;5033012;28;20276;-56
2022/05/10 08:40:01;;;;;;;4.47;3.92;;;37.00;45.20;;;;;;5032962;28;20662;-56
2022/05/10 08:42:30;;;;;;;6.35;5.45;;;35.80;46.80;;;;;;5033002;28;20207;-57
2022/05/10 08:45:00;;;;;;;5.78;5.00;;;34.60;48.50;;;;;;5032763;28;20198;-56
2022/05/10 08:47:29;;;;;;;4.53;4.07;;;33.50;50.30;;;;;;5033081;28;20233;-56
2022/05/10 08:50:00;;;;;;;7.55;4.40;;;32.40;51.40;;;;;;5033074;28;20206;-56
2022/05/10 08:52:31;;;;;;;5.68;4.85;;;31.50;53.20;;;;;;5033144;28;20217;-56
2022/05/10 08:54:58;;;;;;;6.63;4.57;;;30.80;54.80;;;;;;5032498;28;20660;-56
2022/05/10 08:57:35;;;;;;;5.18;4.55;;;30.20;56.10;;;;;;5032327;28;20225;-56
2022/05/10 09:00:06;;;;;;;6.93;4.40;;;29.60;57.50;;;;;;5032319;28;20205;-56
2022/05/10 09:02:40;;;;;;;5.05;4.55;;;28.80;59.00;;;;;;5032854;28;20252;-56
2022/05/10 09:05:12;;;;;;;5.63;4.75;;;28.30;59.70;;;;;;5032519;28;20206;-57
2022/05/10 09:07:45;;;;;;;5.57;4.45;;;27.90;61.60;;;;;;5032549;28;20210;-56
2022/05/10 09:10:18;;;;;;;6.05;5.07;;;27.70;62.80;;;;;;5032288;28;20264;-55
2022/05/10 09:12:52;;;;;;;4.97;4.47;;;27.40;63.60;;;;;;5032817;28;20580;-56
2022/05/10 09:15:20;;;;;;;5.60;4.85;;;27.30;63.50;;;;;;5032037;28;20674;-56
2022/05/10 09:17:48;;;;;;;4.80;4.40;;;27.20;63.90;;;;;;5032166;28;20202;-56
2022/05/10 09:20:14;;;;;;;6.45;4.63;;;27.20;64.30;;;;;;5032328;28;20469;-56
2022/05/10 09:22:54;;;;;;;5.50;4.65;;;27.20;64.30;;;;;;5032586;28;20569;-56
2022/05/10 09:25:29;;;;;;;6.03;4.50;;;27.30;64.30;;;;;;5032138;28;20579;-56
2022/05/10 09:27:56;;;;;;;6.57;4.32;;;27.20;63.80;;;;;;5032232;28;20213;-56
2022/05/10 09:30:29;;;;;;;7.75;4.07;;;27.00;64.20;;;;;;5032379;28;20351;-55
2022/05/10 09:36:01;;;;;;;6.88;4.13;;;26.70;63.10;;;;;;5031667;28;20308;-56
2022/05/10 09:38:28;;;;;;;5.80;4.35;;;26.60;64.30;;;;;;5032004;28;20241;-55
2022/05/10 09:40:55;;;;;;;5.45;3.80;;;26.80;64.40;;;;;;5031841;28;20209;-56
2022/05/10 09:43:25;;;;;;;11.52;5.30;;;26.90;63.60;;;;;;5031789;28;20302;-57
2022/05/10 09:46:09;;;;;;;8.23;4.10;;;27.00;63.30;;;;;;5031697;28;20230;-56
2022/05/10 09:48:37;;;;;;;5.25;3.97;;;27.20;62.20;;;;;;5031949;28;20214;-56
2022/05/10 09:51:23;;;;;;;8.02;4.28;;;27.20;61.90;;;;;;5031739;28;20210;-56
2022/05/10 09:53:51;;;;;;;9.93;4.47;;;27.30;61.60;;;;;;5031638;28;20702;-57
2022/05/10 09:56:34;;;;;;;6.07;4.07;;;27.40;60.80;;;;;;5031340;28;20234;-56
2022/05/10 09:59:04;;;;;;;6.38;4.25;;;27.40;60.20;;;;;;5031694;28;20689;-56
2022/05/10 10:01:40;;;;;;;7.32;4.13;;;27.30;60.10;;;;;;5031603;28;20676;-56
2022/05/10 10:04:21;;;;;;;4.43;4.03;;;27.30;59.80;;;;;;5031465;28;20212;-56
2022/05/10 10:07:03;;;;;;;4.28;3.88;;;26.90;60.40;;;;;;5031665;28;20784;-56
2022/05/10 10:09:31;;;;;;;4.53;3.60;;;26.80;61.20;;;;;;5031454;28;20255;-57
2022/05/10 10:11:59;;;;;;;6.60;4.10;;;26.80;61.90;;;;;;5031673;28;20355;-56
2022/05/10 10:14:40;;;;;;;4.70;3.50;;;26.80;61.50;;;;;;5031125;28;20214;-56
2022/05/10 10:17:22;;;;;;;4.20;3.78;;;26.80;60.20;;;;;;5031663;28;20245;-55
2022/05/10 10:19:54;;;;;;;4.35;3.90;;;27.00;61.00;;;;;;5031599;28;20217;-55
2022/05/10 10:22:27;;;;;;;5.45;3.90;;;26.80;60.00;;;;;;5031685;28;20210;-55
2022/05/10 10:25:00;;;;;;;3.92;3.50;;;26.80;61.30;;;;;;5031275;28;20308;-55
2022/05/10 10:27:31;;;;;;;4.10;3.70;;;26.80;61.60;;;;;;5031485;28;20225;-56
2022/05/10 10:30:02;;;;;;;4.30;3.60;;;27.00;60.90;;;;;;5030275;28;20432;-59
2022/05/10 10:32:35;;;;;;;4.53;3.50;;;26.80;60.70;;;;;;5034627;28;20206;-61
2022/05/10 10:35:09;;;;;;;3.95;3.60;;;26.80;60.30;;;;;;5034676;28;20230;-64
2022/05/10 10:37:39;;;;;;;5.65;4.47;;;26.90;60.20;;;;;;5035524;28;20217;-62
2022/05/10 10:40:18;;;;;;;3.83;3.53;;;26.90;60.00;;;;;;5034919;28;20214;-64
2022/05/10 10:42:50;;;;;;;4.22;3.35;;;27.00;59.20;;;;;;5035059;28;20662;-64
2022/05/10 10:45:18;;;;;;;4.82;3.25;;;27.20;59.10;;;;;;5034724;28;20217;-65
2022/05/10 10:47:55;;;;;;;3.75;3.00;;;27.40;59.00;;;;;;5034406;28;20206;-61
2022/05/10 10:50:27;;;;;;;5.90;3.22;;;27.70;57.70;;;;;;5035088;28;20576;-64
2022/05/10 10:52:56;;;;;;;3.20;2.90;;;27.80;56.50;;;;;;5034888;28;20210;-63
2022/05/10 10:55:27;;;;;;;3.92;3.17;;;27.90;56.60;;;;;;5034595;28;20254;-64
2022/05/10 10:58:05;;;;;;;3.25;2.92;;;28.00;56.80;;;;;;5034778;28;20206;-64
2022/05/10 11:00:35;;;;;;;3.33;3.03;;;28.20;55.70;;;;;;5034499;28;20236;-61
2022/05/10 11:03:09;;;;;;;5.72;3.28;;;28.20;55.70;;;;;;5034925;28;20279;-64
2022/05/10 11:06:08;;;;;;;4.40;3.33;;;28.30;55.80;;;;;;5034320;28;20233;-63
2022/05/10 11:08:56;;;;;;;4.85;2.90;;;28.20;54.90;;;;;;5032527;28;20247;-63
2022/05/10 11:11:33;;;;;;;4.07;3.30;;;28.00;55.10;;;;;;5054315;28;20221;-64
2022/05/10 11:14:09;;;;;;;3.88;3.08;;;27.80;56.00;;;;;;5054312;28;20665;-60
2022/05/10 11:16:45;;;;;;;4.82;3.17;;;27.70;56.50;;;;;;5053916;28;20693;-62
2022/05/10 11:19:39;;;;;;;4.15;3.15;;;27.60;56.80;;;;;;5054105;28;20209;-58
2022/05/10 11:22:21;;;;;;;5.03;3.55;;;27.70;56.60;;;;;;5004353;28;20201;-57
2022/05/10 11:24:55;;;;;;;3.03;2.60;;;28.10;56.30;;;;;;5054062;28;20233;-58
2022/05/10 11:27:34;;;;;;;5.35;3.03;;;28.40;53.50;;;;;;5054002;28;20225;-57
2022/05/10 11:30:07;;;;;;;3.10;2.80;;;28.60;54.30;;;;;;5054500;28;20205;-57
2022/05/10 11:32:58;;;;;;;4.57;3.05;;;28.70;53.50;;;;;;5054198;28;20209;-57
2022/05/10 11:35:47;;;;;;;3.42;3.00;;;28.90;53.60;;;;;;5053797;28;20312;-58
2022/05/10 11:38:33;;;;;;;3.15;2.75;;;29.20;53.40;;;;;;5054262;28;20210;-57
2022/05/10 11:41:08;;;;;;;4.90;2.47;;;29.50;51.20;;;;;;5053411;28;20670;-57
2022/05/10 11:44:09;;;;;;;7.43;2.53;;;29.60;49.10;;;;;;5053388;28;20296;-59
2022/05/10 11:47:07;;;;;;;5.78;2.50;;;29.50;48.60;;;;;;5053623;28;20775;-58
2022/05/10 11:50:14;;;;;;;3.38;2.60;;;29.40;49.10;;;;;;5052833;28;20209;-57
2022/05/10 11:53:12;;;;;;;5.30;2.50;;;29.10;50.10;;;;;;5004707;28;20216;-58
2022/05/10 11:55:51;;;;;;;4.68;3.00;;;29.00;50.70;;;;;;5053464;28;20233;-58
2022/05/10 11:58:19;;;;;;;3.53;3.10;;;29.10;51.70;;;;;;5053604;28;20209;-57
2022/05/10 12:00:51;;;;;;;2.92;2.50;;;29.30;51.40;;;;;;5053499;28;20585;-58
2022/05/10 12:03:51;;;;;;;6.85;2.90;;;29.40;52.20;;;;;;5053545;28;20776;-57
2022/05/10 12:06:42;;;;;;;8.07;4.97;;;29.50;51.20;;;;;;5053258;28;20269;-57
2022/05/10 12:09:15;;;;;;;3.85;2.78;;;29.80;51.30;;;;;;5053695;28;20212;-58
2022/05/10 12:11:44;;;;;;;4.10;2.55;;;30.20;49.80;;;;;;5053678;28;20216;-59
2022/05/10 12:23:03;;;;;;;3.00;2.70;;;31.20;48.40;;;;;;4971947;28;20687;-58
2022/05/10 12:25:57;;;;;;;3.17;2.88;;;31.30;47.20;;;;;;4971863;28;20669;-58
2022/05/10 12:28:46;;;;;;;6.15;3.00;;;31.40;46.90;;;;;;5021469;28;20212;-59
2022/05/10 12:31:51;;;;;;;3.78;2.50;;;31.40;47.60;;;;;;5052975;28;20209;-58
2022/05/10 12:34:48;;;;;;;3.95;2.60;;;31.40;47.00;;;;;;5051489;28;20278;-59
2022/05/10 12:37:42;;;;;;;3.03;2.50;;;31.10;47.00;;;;;;5053308;28;20312;-58
2022/05/10 12:40:24;;;;;;;5.05;2.70;;;30.90;47.90;;;;;;5053986;28;20669;-58
2022/05/10 12:43:18;;;;;;;5.53;2.75;;;30.90;48.20;;;;;;5053892;28;20259;-58
2022/05/10 12:45:56;;;;;;;6.07;2.70;;;30.80;48.20;;;;;;5053833;28;20280;-58
2022/05/10 12:48:46;;;;;;;3.35;2.60;;;30.50;49.30;;;;;;5053655;28;20303;-59
2022/05/10 12:51:32;;;;;;;5.05;2.70;;;30.40;49.60;;;;;;5053561;28;20214;-59
2022/05/10 12:54:01;;;;;;;5.22;2.80;;;30.50;48.30;;;;;;5053348;28;20209;-58
2022/05/10 12:56:30;;;;;;;3.20;2.90;;;30.60;48.40;;;;;;5053176;28;20288;-59
2022/05/10 12:58:59;;;;;;;4.28;2.67;;;30.90;49.10;;;;;;5053448;28;20213;-59
2022/05/10 13:01:32;;;;;;;3.85;2.80;;;31.00;49.00;;;;;;5053467;28;20210;-59
2022/05/10 13:04:06;;;;;;;4.50;2.80;;;31.30;48.70;;;;;;5053732;28;20209;-59
2022/05/10 13:06:39;;;;;;;2.92;2.47;;;31.50;48.20;;;;;;5053172;28;20316;-59
2022/05/10 13:09:28;;;;;;;6.57;3.03;;;31.60;47.90;;;;;;5053567;28;20227;-59
2022/05/10 13:11:59;;;;;;;3.13;2.50;;;31.70;47.60;;;;;;5053267;28;20215;-59
2022/05/10 13:14:29;;;;;;;5.90;2.63;;;31.90;47.00;;;;;;5053443;28;20232;-58
2022/05/10 13:16:59;;;;;;;5.78;2.50;;;32.00;46.40;;;;;;5052746;28;20233;-57
2022/05/10 13:19:29;;;;;;;2.75;2.33;;;32.00;46.10;;;;;;5053164;28;20206;-58
2022/05/10 13:21:56;;;;;;;5.47;2.72;;;32.00;46.00;;;;;;5053298;28;20210;-58
2022/05/10 13:24:24;;;;;;;3.20;2.40;;;31.90;46.60;;;;;;5053163;28;20255;-59
2022/05/10 13:26:57;;;;;;;2.72;2.45;;;31.90;46.10;;;;;;5052728;28;20226;-59
2022/05/10 13:29:45;;;;;;;3.78;2.42;;;32.00;46.00;;;;;;5052787;28;20205;-58
2022/05/10 13:32:33;;;;;;;4.65;2.67;;;31.90;46.60;;;;;;5052587;28;20691;-58